Forside
METAR-TAF:

METAR-TAF

Lufthavne :

Tahiti, Fransk Polynesien

Breddekreds: 17-33S, længdekreds: 149-37W, højde: 2 m

Aktuelle vejr

Denne rapport blev lavet for 39 minutter siden, kl. 05:00 UTC
Vind 6 kt fra øst, varierende mellem nordnordøst og østsydøst
Temperatur 25°C
Fugtighed 74%
Tryk 1011 hPa
Sigt 10 km eller mere
Nogle få skyer i en højde af 2000 ft
Spredte skyer i en højde af 6000 ft

METAR: NTAA 210500Z 08006KT 020V110 9999 FEW020 SCT060 25/20 Q1011 NOSIG

Tid: 19:39 (05:39 UTC)

Vejrudsigter

Denne rapport blev lavet for 39 minutter siden, kl. 05:00 UTC
Foreløbig gælder fra 21 på 06 UTC til 22 på 12 UTC
Vind 5 kt fra varierende retninger
Sigt 10 km eller mere
Nogle få skyer i en højde af 2000 ft
Spredte skyer i en højde af 5000 ft

TAF: NTAA 210500Z 2106/2212 VRB05KT 9999 FEW020 SCT050

Vejrobservationer og prognoser fra mere end 4000 lufthavne (METAR og TAF).

De gule og røde prikker repræsenterer de meteorologiske stationer.

Flyt musen over at se navnet på stationen.

Så klik over at se vejr observationer og prognoser.

At skifte det kort: Klik på de grønne knapper med et sort kors for at zoome ind; på den grønne knap med en bindestreg for at zoome ud; eller på de grønne pile for tilstødende kort.


METAR-TAF: